createdAt,value
2023-03-21T00:01:05.094Z,11.85
2023-03-21T00:03:33.523Z,14.13
2023-03-21T00:06:05.128Z,11.10
2023-03-21T00:08:31.496Z,12.87
2023-03-21T00:11:02.295Z,11.50
2023-03-21T00:13:32.558Z,12.25
2023-03-21T00:16:19.298Z,10.07
2023-03-21T00:18:54.409Z,12.27
2023-03-21T00:24:08.872Z,13.30
2023-03-21T00:26:35.912Z,12.18
2023-03-21T00:29:02.383Z,12.63
2023-03-21T00:31:29.047Z,11.52
2023-03-21T00:33:55.881Z,10.50
2023-03-21T00:36:25.846Z,9.98
2023-03-21T00:38:52.455Z,10.18
2023-03-21T00:41:31.698Z,13.00
2023-03-21T00:44:05.341Z,10.98
2023-03-21T00:46:42.784Z,12.97
2023-03-21T00:49:13.524Z,9.63
2023-03-21T00:51:39.953Z,9.98
2023-03-21T00:54:07.780Z,9.70
2023-03-21T00:56:34.288Z,9.77
2023-03-21T00:59:00.781Z,9.87
2023-03-21T01:01:31.884Z,10.20
2023-03-21T01:04:13.451Z,10.07
2023-03-21T01:06:41.486Z,9.68
2023-03-21T01:09:13.696Z,12.15
2023-03-21T01:11:40.392Z,10.93
2023-03-21T01:14:21.481Z,13.32
2023-03-21T01:16:49.880Z,13.18
2023-03-21T01:19:25.645Z,13.85
2023-03-21T01:21:55.838Z,13.35
2023-03-21T01:24:22.733Z,13.70
2023-03-21T01:26:49.287Z,14.00
2023-03-21T01:29:15.692Z,14.20
2023-03-21T01:31:42.201Z,16.17
2023-03-21T01:34:08.662Z,15.65
2023-03-21T01:36:35.088Z,15.60
2023-03-21T01:39:01.515Z,16.90
2023-03-21T01:41:42.378Z,12.88
2023-03-21T01:44:15.881Z,13.38
2023-03-21T01:46:53.995Z,14.50
2023-03-21T01:49:35.963Z,15.13
2023-03-21T01:52:15.164Z,18.45
2023-03-21T01:54:45.016Z,17.38
2023-03-21T01:57:29.966Z,18.00
2023-03-21T02:00:10.811Z,19.08
2023-03-21T02:02:37.587Z,18.50
2023-03-21T02:05:04.518Z,19.55
2023-03-21T02:07:36.798Z,21.92
2023-03-21T02:10:07.826Z,22.00
2023-03-21T02:12:34.393Z,23.15
2023-03-21T02:15:00.899Z,16.40
2023-03-21T02:18:07.142Z,21.10
2023-03-21T02:21:09.466Z,17.60
2023-03-21T02:23:48.690Z,19.23
2023-03-21T02:26:15.225Z,23.23
2023-03-21T02:29:07.507Z,20.43
2023-03-21T02:32:19.982Z,21.35
2023-03-21T02:35:00.863Z,18.65
2023-03-21T02:37:58.285Z,22.38
2023-03-21T02:40:52.635Z,21.67
2023-03-21T02:43:42.224Z,20.43
2023-03-21T02:46:17.368Z,22.10
2023-03-21T02:48:53.315Z,19.67
2023-03-21T02:51:25.939Z,21.27
2023-03-21T02:54:22.202Z,21.05
2023-03-21T02:56:49.004Z,21.03
2023-03-21T02:59:17.531Z,19.52
2023-03-21T03:01:44.365Z,17.23
2023-03-21T03:04:20.938Z,21.20
2023-03-21T03:07:03.429Z,18.67
2023-03-21T03:09:57.786Z,18.67
2023-03-21T03:12:48.974Z,19.35
2023-03-21T03:15:29.631Z,16.48
2023-03-21T03:18:14.738Z,17.92
2023-03-21T03:20:47.970Z,18.95
2023-03-21T03:23:39.064Z,21.67
2023-03-21T03:26:15.336Z,16.83
2023-03-21T03:28:48.793Z,18.88
2023-03-21T03:31:21.796Z,20.48
2023-03-21T03:33:52.105Z,19.63
2023-03-21T03:36:31.509Z,22.00
2023-03-21T03:39:01.968Z,18.15
2023-03-21T03:41:30.150Z,22.23
2023-03-21T03:44:03.617Z,19.35
2023-03-21T03:46:44.945Z,18.85
2023-03-21T03:49:20.266Z,24.37
2023-03-21T03:52:04.495Z,18.73
2023-03-21T03:54:37.121Z,21.10
2023-03-21T03:57:05.912Z,19.13
2023-03-21T03:59:35.948Z,18.75
2023-03-21T04:02:03.075Z,16.67
2023-03-21T04:04:29.766Z,18.95
2023-03-21T04:06:58.021Z,17.98
2023-03-21T04:09:40.872Z,20.38
2023-03-21T04:12:09.818Z,17.92
2023-03-21T04:14:44.532Z,19.00
2023-03-21T04:17:11.927Z,22.48
2023-03-21T04:19:38.488Z,20.23
2023-03-21T04:22:04.905Z,18.70
2023-03-21T04:24:33.809Z,24.58
2023-03-21T04:27:00.802Z,22.20
2023-03-21T04:29:29.430Z,19.63
2023-03-21T04:31:56.689Z,20.77
2023-03-21T04:34:24.021Z,19.33
2023-03-21T04:36:50.933Z,17.88
2023-03-21T04:39:19.030Z,20.63
2023-03-21T04:41:46.566Z,19.83
2023-03-21T04:44:14.623Z,22.90
2023-03-21T04:46:41.827Z,23.23
2023-03-21T04:49:08.538Z,18.30
2023-03-21T04:51:36.613Z,22.83
2023-03-21T04:54:03.305Z,22.27
2023-03-21T04:56:34.137Z,21.52
2023-03-21T04:59:05.352Z,22.15
2023-03-21T05:01:31.929Z,18.48
2023-03-21T05:04:02.388Z,21.27
2023-03-21T05:06:29.333Z,19.00
2023-03-21T05:08:59.991Z,20.88
2023-03-21T05:11:27.606Z,22.85
2023-03-21T05:13:54.111Z,19.02
2023-03-21T05:16:20.654Z,16.73
2023-03-21T05:18:50.612Z,14.77
2023-03-21T05:21:18.269Z,18.70
2023-03-21T05:23:44.849Z,19.58
2023-03-21T05:26:12.313Z,21.30
2023-03-21T05:28:39.950Z,20.87
2023-03-21T05:31:07.071Z,18.38
2023-03-21T05:33:33.532Z,16.25
2023-03-21T05:35:59.979Z,19.20
2023-03-21T05:38:26.610Z,13.90
2023-03-21T05:40:54.353Z,17.50
2023-03-21T05:43:20.783Z,18.52
2023-03-21T05:45:48.382Z,14.70
2023-03-21T05:48:15.388Z,15.43
2023-03-21T05:50:42.475Z,13.77
2023-03-21T05:53:09.052Z,19.80
2023-03-21T05:55:35.934Z,14.65
2023-03-21T05:58:02.423Z,14.98
2023-03-21T06:00:30.578Z,11.98
2023-03-21T06:02:57.194Z,14.43
2023-03-21T06:05:23.672Z,13.93
2023-03-21T06:07:50.139Z,15.23
2023-03-21T06:10:16.853Z,13.13
2023-03-21T06:12:43.314Z,15.55
2023-03-21T06:15:10.591Z,14.27
2023-03-21T06:17:37.027Z,13.33
2023-03-21T06:20:06.896Z,14.38
2023-03-21T06:22:34.623Z,12.07
2023-03-21T06:25:01.578Z,13.93
2023-03-21T06:27:28.005Z,14.35
2023-03-21T06:29:54.412Z,18.30
2023-03-21T06:32:20.924Z,12.45
2023-03-21T06:34:47.403Z,13.00
2023-03-21T06:37:13.832Z,16.88
2023-03-21T06:39:40.468Z,13.25
2023-03-21T06:42:06.911Z,17.70
2023-03-21T06:44:33.340Z,14.13
2023-03-21T06:46:59.865Z,11.38
2023-03-21T06:49:27.346Z,14.75
2023-03-21T06:51:54.108Z,11.60
2023-03-21T06:54:20.659Z,13.70
2023-03-21T06:56:47.305Z,19.67
2023-03-21T06:59:14.091Z,13.07
2023-03-21T07:01:40.898Z,12.75
2023-03-21T07:04:07.285Z,11.65
2023-03-21T07:06:33.755Z,18.50
2023-03-21T07:09:00.545Z,13.23
2023-03-21T07:11:27.051Z,17.23
2023-03-21T07:13:53.658Z,13.85
2023-03-21T07:16:21.660Z,10.60
2023-03-21T07:18:48.289Z,9.93
2023-03-21T07:21:14.864Z,11.45
2023-03-21T07:23:41.386Z,11.93
2023-03-21T07:26:08.082Z,15.45
2023-03-21T07:28:34.698Z,14.20
2023-03-21T07:31:04.436Z,16.10
2023-03-21T07:33:32.310Z,15.10
2023-03-21T07:35:59.228Z,13.63
2023-03-21T07:38:26.884Z,10.30
2023-03-21T07:40:53.646Z,13.93
2023-03-21T07:43:20.346Z,12.60
2023-03-21T07:45:46.946Z,12.30
2023-03-21T07:48:14.117Z,11.07
2023-03-21T07:50:41.356Z,12.30
2023-03-21T07:53:08.842Z,12.20
2023-03-21T07:55:35.898Z,15.73
2023-03-21T07:58:04.063Z,13.07
2023-03-21T08:00:31.088Z,11.48
2023-03-21T08:02:59.159Z,12.50
2023-03-21T08:05:34.111Z,12.77
2023-03-21T08:08:01.192Z,12.07
2023-03-21T08:10:28.233Z,12.77
2023-03-21T08:12:54.707Z,11.68
2023-03-21T08:15:21.724Z,14.27
2023-03-21T08:17:48.339Z,14.05
2023-03-21T08:20:21.061Z,15.60
2023-03-21T08:22:48.153Z,10.40
2023-03-21T08:25:17.751Z,14.85
2023-03-21T08:27:45.627Z,11.88
2023-03-21T08:30:14.635Z,13.82
2023-03-21T08:32:42.233Z,11.63
2023-03-21T08:35:10.824Z,11.55
2023-03-21T08:37:38.017Z,14.48
2023-03-21T08:40:08.557Z,9.48
2023-03-21T08:42:35.596Z,13.05
2023-03-21T08:45:01.992Z,9.73
2023-03-21T08:47:28.434Z,15.18
2023-03-21T08:49:55.437Z,12.93
2023-03-21T08:52:22.810Z,10.48
2023-03-21T08:54:49.229Z,10.10
2023-03-21T08:57:15.602Z,13.70
2023-03-21T08:59:41.987Z,10.85
2023-03-21T09:02:10.035Z,9.18
2023-03-21T09:04:36.650Z,13.43
2023-03-21T09:07:05.113Z,8.63
2023-03-21T09:09:31.892Z,9.00
2023-03-21T09:11:58.678Z,6.90
2023-03-21T09:14:28.816Z,11.68
2023-03-21T09:16:56.046Z,11.05
2023-03-21T09:19:22.547Z,8.02
2023-03-21T09:21:49.176Z,9.33
2023-03-21T09:24:18.024Z,12.63
2023-03-21T09:26:44.548Z,9.52
2023-03-21T09:29:11.347Z,10.50
2023-03-21T09:31:39.849Z,7.45
2023-03-21T09:34:06.454Z,11.53
2023-03-21T09:36:35.082Z,8.63
2023-03-21T09:39:04.018Z,9.57
2023-03-21T09:42:02.430Z,5.53
2023-03-21T09:45:01.329Z,12.20
2023-03-21T09:47:37.605Z,7.30
2023-03-21T09:50:17.216Z,10.68
2023-03-21T09:52:57.073Z,8.88
2023-03-21T09:55:31.113Z,9.48
2023-03-21T09:58:04.951Z,10.52
2023-03-21T10:00:37.438Z,11.47
2023-03-21T10:03:15.169Z,14.00
2023-03-21T10:05:45.862Z,10.15
2023-03-21T10:08:27.511Z,11.40
2023-03-21T10:10:58.907Z,9.43
2023-03-21T10:13:29.851Z,9.70
2023-03-21T10:15:58.171Z,8.95
2023-03-21T10:18:29.309Z,9.10
2023-03-21T10:20:55.770Z,11.23
2023-03-21T10:23:28.157Z,12.02
2023-03-21T10:26:01.109Z,10.60
2023-03-21T10:28:49.997Z,14.07
2023-03-21T10:31:25.243Z,8.02
2023-03-21T10:33:54.345Z,7.55
2023-03-21T10:36:27.090Z,11.45
2023-03-21T10:38:56.563Z,7.33
2023-03-21T10:41:23.261Z,8.30
2023-03-21T10:44:11.778Z,7.45
2023-03-21T10:46:38.574Z,8.80
2023-03-21T10:49:08.433Z,8.90
2023-03-21T10:51:37.641Z,10.07
2023-03-21T10:54:08.380Z,8.52
2023-03-21T10:56:40.634Z,8.13
2023-03-21T10:59:10.650Z,7.10
2023-03-21T11:01:40.791Z,8.07
2023-03-21T11:04:16.261Z,9.53
2023-03-21T11:06:46.844Z,9.13
2023-03-21T11:09:13.226Z,14.43
2023-03-21T11:11:41.374Z,10.48
2023-03-21T11:14:33.912Z,9.95
2023-03-21T11:17:00.645Z,7.10
2023-03-21T11:19:36.414Z,7.45
2023-03-21T11:22:07.298Z,8.57
2023-03-21T11:24:35.844Z,8.88
2023-03-21T11:27:07.058Z,8.20
2023-03-21T11:29:36.484Z,7.13
2023-03-21T11:32:32.590Z,7.18
2023-03-21T11:35:21.010Z,7.82
2023-03-21T11:37:53.640Z,6.10
2023-03-21T11:40:20.280Z,9.88
2023-03-21T11:42:52.579Z,10.63
2023-03-21T11:45:27.892Z,6.78
2023-03-21T11:47:56.624Z,4.97
2023-03-21T11:50:37.063Z,8.27
2023-03-21T11:53:30.736Z,9.38
2023-03-21T11:56:14.301Z,6.77
2023-03-21T11:58:50.227Z,11.82
2023-03-21T12:01:26.544Z,7.60
2023-03-21T12:04:07.566Z,8.60
2023-03-21T12:06:45.658Z,8.93
2023-03-21T12:09:22.825Z,9.27
2023-03-21T12:11:59.942Z,7.13
2023-03-21T12:14:55.628Z,10.05
2023-03-21T12:17:36.120Z,10.35
2023-03-21T12:20:09.897Z,7.28
2023-03-21T12:22:46.651Z,8.80
2023-03-21T12:25:24.959Z,6.90
2023-03-21T12:28:32.030Z,9.95
2023-03-21T12:31:11.397Z,6.18
2023-03-21T12:33:53.135Z,11.93
2023-03-21T12:36:37.035Z,7.37
2023-03-21T12:39:28.412Z,9.38
2023-03-21T12:42:13.209Z,10.27
2023-03-21T12:44:44.496Z,8.63
2023-03-21T12:47:16.804Z,8.68
2023-03-21T12:49:59.794Z,12.37
2023-03-21T12:52:32.540Z,9.68
2023-03-21T12:55:21.581Z,11.93
2023-03-21T12:58:19.700Z,10.80
2023-03-21T13:00:57.361Z,8.65
2023-03-21T13:03:40.483Z,10.47
2023-03-21T13:06:10.718Z,8.70
2023-03-21T13:08:42.218Z,8.35
2023-03-21T13:11:14.077Z,8.45
2023-03-21T13:14:06.078Z,8.70
2023-03-21T13:16:41.548Z,7.57
2023-03-21T13:19:20.210Z,8.00
2023-03-21T13:21:46.526Z,8.10
2023-03-21T13:24:22.020Z,8.52
2023-03-21T13:26:50.807Z,7.32
2023-03-21T13:29:25.383Z,6.80
2023-03-21T13:31:56.677Z,7.80
2023-03-21T13:34:24.952Z,8.43
2023-03-21T13:36:52.667Z,10.93
2023-03-21T13:39:25.458Z,10.68
2023-03-21T13:41:53.191Z,9.10
2023-03-21T13:44:31.881Z,9.93
2023-03-21T13:47:08.564Z,9.60
2023-03-21T13:49:36.977Z,13.50
2023-03-21T13:52:27.631Z,8.65
2023-03-21T13:54:55.989Z,9.30
2023-03-21T13:57:31.924Z,9.32
2023-03-21T14:00:23.484Z,7.55
2023-03-21T14:03:13.101Z,6.82
2023-03-21T14:05:40.122Z,8.48
2023-03-21T14:08:15.764Z,9.20
2023-03-21T14:10:49.207Z,7.38
2023-03-21T14:13:19.567Z,8.52
2023-03-21T14:15:56.705Z,8.77
2023-03-21T14:18:51.657Z,15.50
2023-03-21T14:21:24.311Z,8.60
2023-03-21T14:23:57.423Z,8.50
2023-03-21T14:26:25.704Z,6.95
2023-03-21T14:28:52.732Z,11.13
2023-03-21T14:31:21.042Z,8.35
2023-03-21T14:33:53.898Z,7.03
2023-03-21T14:36:35.217Z,10.15
2023-03-21T14:39:24.027Z,8.43
2023-03-21T14:41:53.484Z,9.40
2023-03-21T14:44:28.804Z,8.68
2023-03-21T14:47:04.485Z,8.80
2023-03-21T14:49:36.499Z,8.95
2023-03-21T14:52:09.633Z,7.25
2023-03-21T14:54:40.531Z,8.80
2023-03-21T14:57:13.963Z,9.32
2023-03-21T14:59:42.123Z,13.00
2023-03-21T15:02:19.775Z,9.88
2023-03-21T15:04:52.504Z,6.75
2023-03-21T15:07:34.472Z,7.85
2023-03-21T15:10:07.659Z,8.43
2023-03-21T15:12:34.436Z,8.67
2023-03-21T15:15:03.055Z,10.52
2023-03-21T15:17:29.976Z,8.43
2023-03-21T15:19:56.550Z,13.35
2023-03-21T15:22:34.296Z,9.73
2023-03-21T15:25:06.479Z,8.87
2023-03-21T15:27:38.017Z,9.70
2023-03-21T15:30:05.154Z,8.10
2023-03-21T15:32:36.575Z,8.02
2023-03-21T15:35:13.258Z,8.25
2023-03-21T15:37:39.844Z,9.83
2023-03-21T15:40:18.400Z,9.52
2023-03-21T15:42:44.813Z,7.85
2023-03-21T15:45:24.956Z,8.18
2023-03-21T15:48:01.488Z,9.63
2023-03-21T15:50:35.371Z,11.00
2023-03-21T15:53:06.086Z,8.88
2023-03-21T15:56:02.547Z,9.55
2023-03-21T15:58:36.025Z,7.57
2023-03-21T16:01:06.347Z,8.43
2023-03-21T16:03:37.027Z,7.57
2023-03-21T16:06:14.235Z,10.05
2023-03-21T16:08:50.940Z,10.63
2023-03-21T16:11:20.065Z,8.15
2023-03-21T16:13:46.579Z,8.13
2023-03-21T16:16:25.034Z,10.57
2023-03-21T16:18:53.035Z,9.40
2023-03-21T16:21:21.999Z,12.65
2023-03-21T16:23:49.222Z,9.35
2023-03-21T16:26:22.213Z,9.70
2023-03-21T16:28:49.662Z,10.83
2023-03-21T16:31:18.879Z,10.27
2023-03-21T16:33:45.791Z,14.13
2023-03-21T16:36:20.407Z,12.25
2023-03-21T16:38:49.621Z,9.60
2023-03-21T16:41:16.901Z,11.13
2023-03-21T16:43:44.388Z,8.40
2023-03-21T16:46:20.393Z,8.85
2023-03-21T16:48:50.149Z,7.88
2023-03-21T16:51:19.198Z,8.50
2023-03-21T16:53:46.290Z,9.00
2023-03-21T16:56:20.335Z,10.07
2023-03-21T16:58:47.212Z,5.40
2023-03-21T17:01:19.373Z,7.63
2023-03-21T17:03:47.416Z,6.25
2023-03-21T17:06:16.975Z,5.63
2023-03-21T17:08:44.099Z,9.25
2023-03-21T17:11:16.490Z,7.47
2023-03-21T17:13:47.498Z,9.82
2023-03-21T17:16:16.022Z,7.95
2023-03-21T17:18:43.544Z,6.03
2023-03-21T17:21:15.579Z,8.73
2023-03-21T17:23:42.673Z,7.85
2023-03-21T17:26:10.801Z,8.13
2023-03-21T17:28:38.399Z,8.52
2023-03-21T17:31:12.493Z,8.27
2023-03-21T17:33:39.056Z,6.97
2023-03-21T17:36:06.107Z,8.98
2023-03-21T17:38:32.552Z,8.88
2023-03-21T17:40:59.650Z,9.18
2023-03-21T17:43:26.007Z,7.63
2023-03-21T17:45:52.510Z,8.27
2023-03-21T17:48:19.134Z,9.38
2023-03-21T17:50:46.085Z,7.40
2023-03-21T17:53:12.560Z,10.50
2023-03-21T17:55:39.964Z,9.53
2023-03-21T17:58:06.447Z,8.15
2023-03-21T18:00:32.897Z,8.32
2023-03-21T18:02:59.553Z,9.00
2023-03-21T18:05:27.619Z,7.90
2023-03-21T18:08:09.788Z,6.30
2023-03-21T18:10:38.838Z,7.72
2023-03-21T18:13:05.446Z,8.45
2023-03-21T18:15:32.014Z,7.10
2023-03-21T18:17:59.089Z,6.50
2023-03-21T18:20:50.498Z,6.40
2023-03-21T18:23:18.594Z,8.52
2023-03-21T18:25:45.252Z,8.77
2023-03-21T18:28:12.783Z,6.45
2023-03-21T18:33:27.398Z,9.53
2023-03-21T18:35:59.210Z,5.40
2023-03-21T18:38:27.684Z,7.95
2023-03-21T18:40:54.986Z,6.47
2023-03-21T18:46:09.081Z,7.17
2023-03-21T18:48:36.090Z,6.00
2023-03-21T18:51:02.999Z,8.32
2023-03-21T18:53:29.948Z,7.32
2023-03-21T18:55:57.543Z,6.50
2023-03-21T18:58:24.747Z,7.17
2023-03-21T19:00:53.321Z,6.63
2023-03-21T19:03:34.205Z,7.53
2023-03-21T19:06:03.732Z,9.32
2023-03-21T19:08:30.769Z,7.57
2023-03-21T19:11:00.295Z,7.87
2023-03-21T19:13:29.915Z,8.02
2023-03-21T19:15:56.730Z,8.57
2023-03-21T19:18:41.473Z,10.23
2023-03-21T19:21:09.752Z,9.90
2023-03-21T19:24:07.939Z,9.13
2023-03-21T19:26:23.981Z,8.57
2023-03-21T19:28:50.501Z,9.23
2023-03-21T19:31:18.232Z,10.80
2023-03-21T19:33:45.084Z,9.30
2023-03-21T19:36:21.127Z,7.00
2023-03-21T19:38:48.769Z,8.85
2023-03-21T19:41:15.431Z,9.02
2023-03-21T19:43:52.749Z,11.52
2023-03-21T19:46:22.513Z,13.05
2023-03-21T19:48:50.054Z,9.80
2023-03-21T19:51:32.981Z,8.40
2023-03-21T19:54:02.610Z,7.90
2023-03-21T19:56:31.376Z,9.93
2023-03-21T19:58:58.627Z,8.30
2023-03-21T20:01:25.518Z,8.13
2023-03-21T20:03:52.442Z,10.70
2023-03-21T20:06:19.599Z,7.03
2023-03-21T20:11:33.528Z,7.18
2023-03-21T20:14:01.880Z,8.70
2023-03-21T20:16:34.224Z,9.40
2023-03-21T20:19:02.358Z,10.68
2023-03-21T20:21:34.771Z,8.98
2023-03-21T20:24:06.921Z,9.43
2023-03-21T20:26:34.185Z,8.93
2023-03-21T20:29:37.323Z,11.52
2023-03-21T20:31:47.503Z,9.23
2023-03-21T20:34:14.039Z,9.18
2023-03-21T20:36:43.424Z,10.63
2023-03-21T20:39:10.230Z,7.97
2023-03-21T20:41:37.154Z,9.10
2023-03-21T20:46:50.338Z,7.95
2023-03-21T20:49:17.072Z,7.88
2023-03-21T20:54:30.311Z,9.50
2023-03-21T20:56:57.130Z,8.50
2023-03-21T20:59:26.527Z,7.43
2023-03-21T21:01:55.655Z,9.65
2023-03-21T21:04:23.110Z,7.37
2023-03-21T21:06:53.872Z,9.25
2023-03-21T21:09:20.859Z,10.05
2023-03-21T21:14:36.291Z,8.45
2023-03-21T21:17:21.015Z,6.43
2023-03-21T21:19:50.131Z,8.27
2023-03-21T21:22:17.357Z,8.55
2023-03-21T21:24:44.725Z,5.28
2023-03-21T21:27:11.831Z,5.70
2023-03-21T21:29:38.384Z,8.20
2023-03-21T21:32:05.232Z,7.93
2023-03-21T21:34:31.918Z,6.22
2023-03-21T21:36:58.321Z,6.03
2023-03-21T21:39:26.493Z,6.53
2023-03-21T21:41:53.968Z,6.13
2023-03-21T21:44:20.630Z,9.02
2023-03-21T21:46:47.217Z,8.52
2023-03-21T21:49:13.854Z,8.40
2023-03-21T21:51:41.845Z,11.95
2023-03-21T21:54:08.466Z,7.67
2023-03-21T21:56:36.404Z,9.10
2023-03-21T21:59:04.309Z,8.55
2023-03-21T22:01:34.468Z,7.60
2023-03-21T22:04:08.110Z,7.75
2023-03-21T22:06:34.930Z,8.87
2023-03-21T22:09:02.275Z,7.15
2023-03-21T22:11:28.696Z,7.45
2023-03-21T22:13:55.497Z,7.10
2023-03-21T22:16:22.246Z,7.00
2023-03-21T22:18:48.738Z,6.00
2023-03-21T22:21:15.436Z,7.30
2023-03-21T22:23:42.829Z,6.28
2023-03-21T22:26:10.128Z,4.72
2023-03-21T22:28:40.132Z,8.23
2023-03-21T22:31:13.133Z,11.33
2023-03-21T22:33:39.763Z,4.65
2023-03-21T22:36:06.626Z,4.70
2023-03-21T22:38:34.582Z,9.43
2023-03-21T22:41:03.697Z,5.15
2023-03-21T22:43:34.011Z,5.50
2023-03-21T22:46:02.393Z,4.45
2023-03-21T22:48:30.142Z,7.18
2023-03-21T22:50:57.990Z,6.05
2023-03-21T22:53:24.629Z,6.43
2023-03-21T22:55:51.343Z,4.43
2023-03-21T22:58:18.014Z,5.47
2023-03-21T23:00:44.584Z,7.93
2023-03-21T23:03:12.882Z,5.10
2023-03-21T23:05:41.296Z,6.50
2023-03-21T23:08:07.916Z,3.10
2023-03-21T23:10:38.044Z,5.95
2023-03-21T23:13:04.904Z,6.35
2023-03-21T23:15:31.271Z,3.42
2023-03-21T23:17:57.754Z,7.75
2023-03-21T23:20:24.165Z,4.50
2023-03-21T23:22:50.521Z,5.05
2023-03-21T23:25:16.916Z,3.72
2023-03-21T23:27:43.337Z,3.88
2023-03-21T23:30:09.979Z,5.00
2023-03-21T23:32:36.800Z,5.83
2023-03-21T23:35:03.254Z,3.47
2023-03-21T23:37:32.723Z,5.78
2023-03-21T23:39:59.174Z,5.38
2023-03-21T23:42:26.957Z,6.25
2023-03-21T23:44:53.376Z,5.37
2023-03-21T23:47:19.852Z,3.63
2023-03-21T23:49:49.057Z,5.82
2023-03-21T23:52:16.030Z,8.50
2023-03-21T23:54:42.400Z,10.80
2023-03-21T23:57:08.931Z,3.17
2023-03-21T23:59:35.326Z,2.58
